Tiempo atmosférico en la estación meteorológica de Motril, Puerto, Granada (3 m.)



Fecha
DESCASC
Temp. máxima en grados centígrados (hora)
DESCASC
Temp. mínima en grados centígrados (hora)
DESCASC
Temp. media en grados centígrados
DESCASC
Racha de viento máxima en m/sg (hora)
DESCASC
Velocidad máxima media en intervalos de 10 minutos(hora)
DESCASC
Precipitaciones diarias en mm
DESCASC
Precipitaciones de 00:00 a 06:00 en mm
DESCASC
Precipitaciones de 06:00 a 12:00 en mm
DESCASC
Precipitaciones de 12:00 a 18:00 en mm
DESCASC
Precipitaciones de 18:00 a 24:00 en mm
DESCASC
25-04-2019 19.9 (15:10) 15.6 (23:10) 17.8 14.17 (17:40) 9.17 (17:40) 2.2 0 2.2 0 0
24-04-2019 20.2 (17:00) 11.1 (07:40) 15.7 12.5 (00:10) 8.06 (00:10) 0 0 0 0 0
23-04-2019 17.6 (16:50) 14.2 (13:40) 15.9 15 (22:00) 9.17 (22:00) 8.6 0 6.8 1.8 0
22-04-2019 20.6 (15:00) 12.4 (00:00) 16.5 12.22 (18:10) 7.5 (20:20) 0 0 0 0 0
21-04-2019 17.2 (16:40) 13.7 (00:00) 15.5 6.11 (16:50) 3.61 (16:20) 6.6 1 3.2 2 0.4
20-04-2019 19.7 (12:50) 12.8 (00:00) 16.3 8.06 (13:30) 6.39 (13:30) 0 0 0 0 0
19-04-2019 21.7 (10:10) 12 (00:00) 16.9 8.61 (11:30) 7.5 (11:40) 0 0 0 0 0
18-04-2019 19.8 (14:20) 12.7 (00:00) 16.2 8.61 (07:10) 5.28 (06:40) 14 1.8 12.2 0 0
17-04-2019 22.4 (11:10) 12.8 (00:00) 17.6 13.89 (15:10) 10.28 (15:00) 0 0 0 0 0
16-04-2019 19.9 (12:00) 14.2 (00:00) 17 10.83 (01:50) 8.61 (12:50) 0 0 0 0 0
15-04-2019 25.1 (14:20) 14.1 (00:00) 19.6 10.83 (21:10) 6.94 (21:10) 0 0 0 0 0
14-04-2019 22.9 (12:50) 13.2 (00:00) 18 4.17 (05:30) 2.5 (14:40) 0 0 0 0 0
13-04-2019 22.9 (13:10) 11.4 (00:00) 17.1 5.56 (20:20) 3.61 (20:50) 0 0 0 0 0
12-04-2019 22.7 (11:50) 11.4 (00:00) 17.1 6.67 (18:00) 3.33 (18:20) 0 0 0 0 0
11-04-2019 22.2 (11:20) 12.2 (00:00) 17.2 13.06 (18:40) 7.5 (18:40) 0 0 0 0 0
10-04-2019 22.1 (15:00) 14.6 (00:00) 18.4 16.11 (12:00) 8.89 (10:50) 0 0 0 0 0
09-04-2019 20.7 (12:30) 13.7 (00:00) 17.2 14.44 (14:30) 9.17 (14:40) 0 0 0 0 0
08-04-2019 20.2 (14:20) 12.9 (00:00) 16.6 12.5 (13:20) 7.78 (18:30) 0 0 0 0 0
07-04-2019 20.2 (13:30) 10.9 (00:00) 15.6 14.17 (14:10) 8.89 (13:50) 0.8 0.8 0 0 0
06-04-2019 17.8 (14:40) 10.6 (00:00) 14.2 13.33 (15:00) 8.33 (14:50) 6.8 0 0 5.8 1
05-04-2019 16 (17:50) 11.6 (00:00) 13.8 15 (18:50) 7.5 (18:50) 13 0 6.8 6.2 0
04-04-2019 19.7 (16:20) 14.7 (00:00) 17.2 11.11 (23:10) 7.5 (12:40) 0 0 0 0 0
03-04-2019 20.6 (14:30) 11.7 (00:00) 16.2 7.78 (23:20) 4.44 (23:50) 0 0 0 0 0
02-04-2019 21.6 (11:20) 11.6 (00:00) 16.6 7.5 (19:20) 4.44 (20:10) 0 0 0 0 0
01-04-2019 21.7 (12:20) 12.8 (00:00) 17.3 9.17 (18:00) 4.72 (18:00) 0 0 0 0 0
31-03-2019 17 (17:40) 13.8 (00:00) 15.4 6.39 (00:40) 4.44 (01:00) 8.4 2.6 1.6 4 0.2
30-03-2019 17.8 (09:50) 11.3 (00:00) 14.5 15 (14:10) 11.11 (16:00) 0.2 0 0 0 0.2
29-03-2019 22 (10:20) 9.2 (00:00) 15.6 13.06 (14:00) 9.44 (16:00) 0 0 0 0 0
28-03-2019 18.1 (09:10) 10 (00:00) 14.1 15 (13:50) 11.11 (17:20) 0 0 0 0 0
27-03-2019 22.9 (10:40) 12.4 (00:00) 17.6 15 (16:40) 10.28 (16:40) 0 0 0 0 0

Gráficas

Temp. máximas Temp. mínimas Temp. medias Precipitaciones Rachas de viento máximas Velocidades máximas media en intervalos de 10 minutos

Datos horarios

Fecha y hora oficial Temperatura (ºC) Velocidad del viento (km/h) Dirección del viento Racha (km/h) Dirección de racha Precipitación (mm) Presión (hPa) Tendencia (hPa) Humedad (%)
2019-04-25 23:00:00 15.8 15 Oeste 30 Oeste 0 -- -- 78
2019-04-25 22:00:00 16.1 19 Oeste 39 Oeste 0 -- -- 81
2019-04-25 21:00:00 16.3 26 Oeste 48 Oeste 0 -- -- 81
2019-04-25 20:00:00 17.4 26 Oeste 47 Oeste 0 -- -- 77
2019-04-25 19:00:00 18.5 26 Oeste 48 Oeste 0 -- -- 71
2019-04-25 18:00:00 18.6 28 Oeste 51 Oeste 0 -- -- 71
2019-04-25 17:00:00 19.8 23 Oeste 42 Sudoeste 0 -- -- 66
2019-04-25 16:00:00 19.5 21 Oeste 42 Oeste 0 -- -- 65
2019-04-25 15:00:00 19.3 21 Oeste 41 Oeste 0 -- -- 68
2019-04-25 14:00:00 18.6 18 Oeste 33 Oeste 0 -- -- 77
2019-04-25 13:00:00 18.1 14 Oeste 35 Oeste 0 -- -- 86
2019-04-25 12:00:00 16.9 13 Oeste 25 Oeste 0.6 -- -- 90
2019-04-25 11:00:00 16.4 9 Oeste 21 Oeste 1 -- -- 90
2019-04-25 10:00:00 16.1 13 Oeste 22 Oeste 0.6 -- -- 88
2019-04-25 09:00:00 16.3 10 Oeste 27 Oeste 0 -- -- 87
2019-04-25 08:00:00 16.6 8 Oeste 16 Oeste 0 -- -- 82
2019-04-25 07:00:00 16.7 6 Noroeste 13 Oeste 0 -- -- 81
2019-04-25 06:00:00 16.8 4 Noroeste 8 Oeste 0 -- -- 78
2019-04-25 05:00:00 16.8 2 Noroeste 12 Oeste 0 -- -- 75
2019-04-25 04:00:00 16.8 6 Noroeste 14 Oeste 0 -- -- 73
2019-04-25 03:00:00 16.9 8 Oeste 15 Oeste 0 -- -- 71
2019-04-25 02:00:00 16.9 12 Oeste 33 Oeste 0 -- -- 71
2019-04-25 01:00:00 16.8 13 Oeste 20 Oeste 0 -- -- 68
2019-04-25 00:00:00 16.8 8 Noroeste 19 Oeste 0 -- -- 64
2019-04-24 23:00:00 17.1 7 Noroeste 14 Noroeste 0 -- -- 68
2019-04-24 22:00:00 17.1 6 Noroeste 24 Norte 0 -- -- 67
2019-04-24 21:00:00 16.7 2 Norte 9 Oeste 0 -- -- 70
2019-04-24 20:00:00 17.4 5 Sudoeste 18 Oeste 0 -- -- 67
2019-04-24 19:00:00 18 12 Oeste 23 Oeste 0 -- -- 61
2019-04-24 18:00:00 19.5 11 Oeste 28 Oeste 0 -- -- 54
2019-04-24 17:00:00 20.2 16 Oeste 31 Oeste 0 -- -- 50
2019-04-24 16:00:00 20.1 17 Oeste 31 Oeste 0 -- -- 55
2019-04-24 15:00:00 18.8 14 Oeste 30 Oeste 0 -- -- 59
2019-04-24 14:00:00 19.2 14 Oeste 28 Sudoeste 0 -- -- 61
2019-04-24 13:00:00 17.1 8 Oeste 24 Oeste 0 -- -- 72
2019-04-24 12:00:00 16.2 10 Oeste 25 Sudoeste 0 -- -- 77
2019-04-24 11:00:00 17.5 6 Sudoeste 17 Oeste 0 -- -- 59
2019-04-24 10:00:00 19.1 4 Oeste 9 Oeste 0 -- -- 49
2019-04-24 09:00:00 13.6 5 Noroeste 8 Noroeste 0 -- -- 64
2019-04-24 08:00:00 11.6 0 Calma 6 Norte 0 -- -- 71
2019-04-24 07:00:00 12 3 Noroeste 9 Noroeste 0 -- -- 65
2019-04-24 06:00:00 12.3 5 Noroeste 13 Noroeste 0 -- -- 62
2019-04-24 05:00:00 12.6 5 Noroeste 12 Noroeste 0 -- -- 60
2019-04-24 04:00:00 13.2 9 Oeste 16 Oeste 0 -- -- 57
2019-04-24 03:00:00 13.2 12 Oeste 16 Oeste 0 -- -- 56
2019-04-24 02:00:00 12.8 5 Noroeste 15 Oeste 0 -- -- 62
2019-04-24 01:00:00 14 11 Noroeste 45 Oeste 0 -- -- 65
2019-04-24 00:00:00 14.8 27 Oeste 51 Sudoeste 0 -- -- 64
2019-04-23 23:00:00 15.1 31 Oeste 52 Oeste 0 -- -- 66
2019-04-23 22:00:00 15.2 33 Oeste 54 Oeste 0 -- -- 65
2019-04-23 21:00:00 15.4 29 Oeste 53 Oeste 0 -- -- 60
2019-04-23 20:00:00 16.2 27 Oeste 46 Oeste 0 -- -- 64
2019-04-23 19:00:00 17.3 23 Oeste 44 Oeste 0 -- -- 60
2019-04-23 18:00:00 17.4 21 Oeste 46 Sudoeste 0 -- -- 62
2019-04-23 17:00:00 17.5 24 Oeste 41 Sudoeste 0 -- -- 62
2019-04-23 16:00:00 17.2 14 Sudoeste 38 Oeste 0 -- -- 61
2019-04-23 15:00:00 15 14 Oeste 27 Sudoeste 0.2 -- -- 77
2019-04-23 14:00:00 15.2 5 Norte 24 Oeste 0.4 -- -- 86
2019-04-23 13:00:00 15.1 8 Oeste 31 Oeste 1.2 -- -- 88
2019-04-23 12:00:00 15.2 2 Sudoeste 23 Oeste 2.6 -- -- 89
2019-04-23 11:00:00 14.7 12 Noroeste 37 Oeste 3.6 -- -- 88
2019-04-23 10:00:00 16 8 Oeste 17 Oeste 0.6 -- -- 84
2019-04-23 09:00:00 16 0 Calma 4 Noroeste 0 -- -- 82
2019-04-23 08:00:00 15.8 5 Oeste 21 Sudoeste 0 -- -- 81
2019-04-23 07:00:00 15.9 9 Oeste 23 Oeste 0 -- -- 79
2019-04-23 06:00:00 15.9 9 Oeste 21 Oeste 0 -- -- 78
2019-04-23 05:00:00 15.8 12 Oeste 30 Oeste 0 -- -- 78
2019-04-23 04:00:00 16 17 Oeste 34 Oeste 0 -- -- 76
2019-04-23 03:00:00 16.2 20 Oeste 35 Oeste 0 -- -- 76
2019-04-23 02:00:00 15.9 10 Oeste 26 Oeste 0 -- -- 76
2019-04-23 01:00:00 16.3 19 Oeste 45 Oeste 0 -- -- 78
2019-04-23 00:00:00 16.6 23 Oeste 42 Oeste 0 -- -- 79
2019-04-22 23:00:00 16.9 21 Oeste 44 Oeste 0 -- -- 78
2019-04-22 22:00:00 17.5 21 Oeste 37 Oeste 0 -- -- 77
2019-04-22 21:00:00 17.9 18 Oeste 40 Oeste 0 -- -- 75
2019-04-22 20:00:00 18.5 23 Oeste 42 Sudoeste 0 -- -- 73
2019-04-22 19:00:00 19 19 Oeste 44 Oeste 0 -- -- 72
2019-04-22 18:00:00 19.3 23 Oeste 42 Oeste 0 -- -- 69
2019-04-22 17:00:00 20.5 16 Oeste 35 Oeste 0 -- -- 65
2019-04-22 16:00:00 19.5 17 Oeste 34 Oeste 0 -- -- 65
2019-04-22 15:00:00 20.6 10 Noroeste 31 Oeste 0 -- -- 50
2019-04-22 14:00:00 19.7 15 Oeste 26 Oeste 0 -- -- 50
2019-04-22 13:00:00 19.4 10 Oeste 22 Oeste 0 -- -- 52
2019-04-22 12:00:00 18.4 13 Noroeste 27 Oeste 0 -- -- 50
2019-04-22 11:00:00 17.9 8 Noroeste 22 Norte 0 -- -- 52
2019-04-22 10:00:00 18 10 Noroeste 22 Norte 0 -- -- 55
2019-04-22 09:00:00 15.4 6 Oeste 14 Oeste 0 -- -- 73
2019-04-22 08:00:00 13.5 6 Noroeste 19 Oeste 0 -- -- 82
2019-04-22 07:00:00 12.5 4 Sudoeste 10 Sudoeste 0 -- -- 92
2019-04-22 06:00:00 12.8 0 Calma 4 Norte 0 -- -- 92
2019-04-22 05:00:00 13.2 2 Sur 5 Nordeste 0 -- -- 92
2019-04-22 04:00:00 13.2 2 Nordeste 5 Norte 0 -- -- 92
2019-04-22 03:00:00 13.8 0 Calma 6 Norte 0 -- -- 91
2019-04-22 02:00:00 13.8 5 Nordeste 8 Nordeste 0 -- -- 91
2019-04-22 01:00:00 14.3 0 Calma 4 Oeste 0 -- -- 90
2019-04-22 00:00:00 14.5 3 Oeste 6 Norte 0 -- -- 90
2019-04-21 23:00:00 14.6 5 Nordeste 9 Nordeste 0 -- -- 89
2019-04-21 22:00:00 15.1 3 Noroeste 14 Oeste 0 -- -- 87
2019-04-21 21:00:00 15.3 9 Oeste 21 Sudoeste 0 -- -- 87
2019-04-21 20:00:00 15.8 12 Oeste 19 Sudoeste 0 -- -- 86
2019-04-21 19:00:00 15.7 5 Oeste 17 Oeste 0.4 -- -- 87
2019-04-21 18:00:00 16.1 7 Oeste 20 Oeste 2 -- -- 86
2019-04-21 17:00:00 17.2 10 Oeste 22 Oeste 0 -- -- 76
2019-04-21 16:00:00 17 10 Oeste 19 Oeste 0 -- -- 76
2019-04-21 15:00:00 16.8 6 Oeste 18 Oeste 0 -- -- 77
2019-04-21 14:00:00 16.7 5 Oeste 13 Oeste 0 -- -- 82
2019-04-21 13:00:00 16.4 6 Oeste 14 Oeste 0 -- -- 83
2019-04-21 12:00:00 15.7 7 Oeste 13 Oeste 0 -- -- 84
2019-04-21 11:00:00 15 0 Calma 4 Noroeste 0 -- -- 86
2019-04-21 10:00:00 14.4 2 Este 7 Este 0 -- -- 89
2019-04-21 09:00:00 13.8 0 Calma 5 Nordeste 0.2 -- -- 91
2019-04-21 08:00:00 13.7 3 Norte 5 Norte 2 -- -- 91
2019-04-21 07:00:00 13.8 2 Norte 5 Este 1 -- -- 90
2019-04-21 06:00:00 14 4 Este 11 Este 0.6 -- -- 88
2019-04-21 05:00:00 14.4 0 Calma 9 Oeste 0.2 -- -- 84
2019-04-21 04:00:00 15 4 Oeste 10 Oeste 0 -- -- 83
2019-04-21 03:00:00 15.5 5 Oeste 10 Noroeste 0.2 -- -- 80
2019-04-21 02:00:00 15.5 5 Noroeste 9 Noroeste 0 -- -- 76
2019-04-21 01:00:00 15.4 0 Calma 4 Noroeste 0 -- -- 76
2019-04-21 00:00:00 15.8 3 Noroeste 10 Noroeste 0 -- -- 73
2019-04-20 23:00:00 15.7 2 Nordeste 10 Sudeste 0 -- -- 71
2019-04-20 22:00:00 15.8 4 Sudeste 13 Sudeste 0 -- -- 71
2019-04-20 21:00:00 16 5 Sudeste 18 Sudeste 0 -- -- 73
2019-04-20 20:00:00 16.1 13 Sudeste 21 Sudeste 0 -- -- 75
2019-04-20 19:00:00 16.7 13 Sudeste 18 Sudeste 0 -- -- 75
2019-04-20 18:00:00 16.6 7 Sudeste 14 Sudeste 0 -- -- 74
2019-04-20 17:00:00 16.4 8 Sudeste 15 Sudeste 0 -- -- 76
2019-04-20 16:00:00 17.4 6 Sudeste 10 Sudeste 0 -- -- 68
2019-04-20 15:00:00 18.2 4 Sur 22 Sudeste 0 -- -- 64
2019-04-20 14:00:00 16.8 19 Sudeste 29 Sudeste 0 -- -- 70
2019-04-20 13:00:00 19 9 Sur 13 Sur 0 -- -- 62
2019-04-20 12:00:00 17.3 2 Noroeste 6 Nordeste 0 -- -- 62
2019-04-20 11:00:00 16.1 3 Nordeste 6 Nordeste 0 -- -- 72
2019-04-20 10:00:00 14.6 3 Nordeste 5 Nordeste 0 -- -- 76
2019-04-20 09:00:00 13.6 2 Nordeste 5 Nordeste 0 -- -- 80
2019-04-20 08:00:00 13.4 0 Calma 3 Noroeste 0 -- -- 80
2019-04-20 07:00:00 13.2 0 Calma 7 Noroeste 0 -- -- 77
2019-04-20 06:00:00 13.7 5 Noroeste 12 Noroeste 0 -- -- 74
2019-04-20 05:00:00 12.9 0 Calma 4 Este 0 -- -- 80
2019-04-20 04:00:00 13.1 0 Calma 6 Nordeste 0 -- -- 81
2019-04-20 03:00:00 13 3 Nordeste 7 Nordeste 0 -- -- 81
2019-04-20 02:00:00 13.2 0 Calma 5 Nordeste 0 -- -- 81
2019-04-20 01:00:00 13.8 4 Este 8 Este 0 -- -- 79
2019-04-20 00:00:00 14 4 Nordeste 8 Nordeste 0 -- -- 78
2019-04-19 23:00:00 14.6 0 Calma 6 Este 0 -- -- 77
2019-04-19 22:00:00 15.7 2 Sudoeste 6 Sur 0 -- -- 71
2019-04-19 21:00:00 16 5 Sudeste 11 Sudeste 0 -- -- 72
2019-04-19 20:00:00 16.3 8 Sudeste 11 Sudeste 0 -- -- 69
2019-04-19 19:00:00 16.7 10 Sudeste 15 Sur 0 -- -- 69
2019-04-19 18:00:00 17.8 10 Sudeste 15 Sudeste 0 -- -- 65
2019-04-19 17:00:00 18.4 11 Sudeste 18 Sudeste 0 -- -- 65
2019-04-19 16:00:00 18.5 14 Sudeste 19 Sudeste 0 -- -- 64
2019-04-19 15:00:00 18.8 13 Sudeste 18 Sudeste 0 -- -- 62
2019-04-19 14:00:00 19.3 10 Sudeste 19 Sudeste 0 -- -- 60
2019-04-19 13:00:00 17.8 18 Sudeste 27 Sudeste 0 -- -- 65
2019-04-19 12:00:00 18 23 Sudeste 31 Sudeste 0 -- -- 66
2019-04-19 11:00:00 17.7 24 Sudeste 29 Sudeste 0 -- -- 67
2019-04-19 10:00:00 20.9 0 Calma 8 Sudeste 0 -- -- 46
2019-04-19 09:00:00 15.4 6 Sudeste 9 Sudeste 0 -- -- 69
2019-04-19 08:00:00 12.2 4 Norte 7 Norte 0 -- -- 70
2019-04-19 07:00:00 12.9 5 Sudeste 14 Noroeste 0 -- -- 69
2019-04-19 06:00:00 12.8 3 Noroeste 10 Noroeste 0 -- -- 68
2019-04-19 05:00:00 12.5 0 Calma 6 Noroeste 0 -- -- 75
2019-04-19 04:00:00 13.3 3 Este 8 Sudeste 0 -- -- 72
2019-04-19 03:00:00 13.8 3 Noroeste 12 Noroeste 0 -- -- 70
2019-04-19 02:00:00 15.2 9 Noroeste 21 Noroeste 0 -- -- 67
2019-04-19 01:00:00 15.4 0 Calma 9 Norte 0 -- -- 62
2019-04-19 00:00:00 14.3 2 Norte 17 Norte 0 -- -- 63
2019-04-18 23:00:00 14.9 7 Noroeste 16 Noroeste 0 -- -- 63
2019-04-18 22:00:00 15.5 11 Oeste 22 Oeste 0 -- -- 78
2019-04-18 21:00:00 15.7 12 Oeste 23 Oeste 0 -- -- 71
2019-04-18 20:00:00 16.8 9 Oeste 17 Oeste 0 -- -- 73
2019-04-18 19:00:00 18.3 7 Oeste 22 Sudoeste 0 -- -- 69
2019-04-18 18:00:00 18.1 9 Oeste 23 Oeste 0 -- -- 68
2019-04-18 17:00:00 18.3 8 Sudoeste 21 Sudoeste 0 -- -- 71
2019-04-18 16:00:00 17.8 7 Oeste 25 Oeste 0 -- -- 62
2019-04-18 15:00:00 18.6 6 Sur 16 Sudoeste 0 -- -- 70
2019-04-18 14:00:00 18.9 10 Sudoeste 21 Oeste 0 -- -- 70
2019-04-18 13:00:00 18.7 9 Sudoeste 25 Oeste 0 -- -- 71
2019-04-18 12:00:00 16.1 11 Oeste 24 Oeste 0.2 -- -- 82
2019-04-18 11:00:00 13.5 2 Este 18 Nordeste 1.6 -- -- 84
2019-04-18 10:00:00 13.1 5 Noroeste 13 Noroeste 3.6 -- -- 89
2019-04-18 09:00:00 13.7 7 Norte 17 Noroeste 2.8 -- -- 91
2019-04-18 08:00:00 14.3 6 Oeste 31 Oeste 3 -- -- 91
2019-04-18 07:00:00 14.7 18 Oeste 31 Oeste 1 -- -- 92
2019-04-18 06:00:00 15.6 14 Oeste 30 Oeste 0.2 -- -- 91
2019-04-18 05:00:00 15.9 8 Oeste 22 Sur 1 -- -- 91
2019-04-18 04:00:00 16 8 Sur 22 Sudoeste 0.4 -- -- 89
2019-04-18 03:00:00 16.3 8 Sudoeste 16 Sudoeste 0.2 -- -- 88
2019-04-18 02:00:00 16.6 8 Sur 19 Sur 0 -- -- 82
2019-04-18 01:00:00 17 9 Noroeste 18 Sudoeste 0 -- -- 76
2019-04-18 00:00:00 17 11 Oeste 17 Oeste 0 -- -- 78
2019-04-17 23:00:00 17.2 10 Oeste 25 Oeste 0 -- -- 77
2019-04-17 22:00:00 17 15 Oeste 30 Oeste 0 -- -- 80
2019-04-17 21:00:00 17.2 15 Oeste 33 Oeste 0 -- -- 78
2019-04-17 20:00:00 17.4 20 Oeste 36 Oeste 0 -- -- 77
2019-04-17 19:00:00 18 17 Oeste 30 Oeste 0 -- -- 76
2019-04-17 18:00:00 18.8 13 Oeste 38 Sudeste 0 -- -- 73
2019-04-17 17:00:00 18.4 28 Sudeste 43 Sudeste 0 -- -- 73
2019-04-17 16:00:00 18.9 33 Sudeste 50 Sudeste 0 -- -- 70
2019-04-17 15:00:00 19.7 37 Sudeste 45 Sudeste 0 -- -- 62
2019-04-17 14:00:00 20.4 29 Sudeste 40 Sudeste 0 -- -- 62
2019-04-17 13:00:00 19.3 31 Sudeste 41 Sudeste 0 -- -- 65
2019-04-17 12:00:00 19.2 28 Sudeste 35 Sudeste 0 -- -- 67
2019-04-17 11:00:00 22.3 9 Oeste 17 Oeste 0 -- -- 53
2019-04-17 10:00:00 19.4 4 Sudoeste 7 Sudoeste 0 -- -- 62
2019-04-17 09:00:00 16.1 0 Calma 5 Oeste 0 -- -- 75
2019-04-17 08:00:00 13.3 2 Noroeste 8 Nordeste 0 -- -- 79
2019-04-17 07:00:00 13 0 Calma 5 Este 0 -- -- 82
2019-04-17 06:00:00 13.6 2 Este 4 Nordeste 0 -- -- 83
2019-04-17 05:00:00 14.3 0 Calma 8 Norte 0 -- -- 81
2019-04-17 04:00:00 14.1 4 Norte 7 Nordeste 0 -- -- 80
2019-04-17 03:00:00 15.1 0 Calma 8 Noroeste 0 -- -- 79
2019-04-17 02:00:00 15.8 0 Calma 9 Este 0 -- -- 78
2019-04-17 01:00:00 16.2 2 Sudoeste 13 Este 0 -- -- 77
2019-04-17 00:00:00 16.9 5 Noroeste 21 Sudeste 0 -- -- 71
2019-04-16 23:00:00 17.3 20 Sudeste 25 Sudeste 0 -- -- 75
2019-04-16 22:00:00 17.6 6 Este 18 Este 0 -- -- 64
2019-04-16 21:00:00 18.1 5 Noroeste 22 Sudeste 0 -- -- 72
2019-04-16 20:00:00 19.6 12 Noroeste 27 Sudeste 0 -- -- 69
2019-04-16 19:00:00 18.4 19 Sudeste 26 Sudeste 0 -- -- 71
2019-04-16 18:00:00 17.9 23 Sudeste 31 Sudeste 0 -- -- 78
2019-04-16 17:00:00 18.6 19 Sudeste 31 Sudeste 0 -- -- 76
2019-04-16 16:00:00 19.3 14 Sur 24 Sudeste 0 -- -- 73
2019-04-16 15:00:00 18.3 18 Sudeste 29 Sur 0 -- -- 78
2019-04-16 14:00:00 18.6 15 Sudeste 33 Sudeste 0 -- -- 77
2019-04-16 13:00:00 18.9 30 Sudeste 37 Sudeste 0 -- -- 71
2019-04-16 12:00:00 19.9 18 Sudeste 32 Sudeste 0 -- -- 63
2019-04-16 11:00:00 18 14 Sudeste 22 Sudeste 0 -- -- 76
2019-04-16 10:00:00 19.7 7 Sudeste 11 Sudeste 0 -- -- 71
2019-04-16 09:00:00 16.5 6 Este 10 Este 0 -- -- 81
2019-04-16 08:00:00 14.2 0 Calma 14 Oeste 0 -- -- 86
2019-04-16 07:00:00 15 4 Oeste 18 Oeste 0 -- -- 85
2019-04-16 06:00:00 15.5 5 Oeste 31 Oeste 0 -- -- 84
2019-04-16 05:00:00 15.8 19 Oeste 35 Oeste 0 -- -- 83
2019-04-16 04:00:00 16.1 14 Oeste 35 Oeste -- -- -- 80
2019-04-16 03:00:00 16.4 4 Nordeste 33 Oeste 0 -- -- 80
2019-04-16 02:00:00 16.7 22 Oeste 39 Oeste 0 -- -- 81
2019-04-16 01:00:00 17.2 18 Oeste 29 Oeste 0 -- -- 76
2019-04-16 00:00:00 17.3 9 Oeste 17 Oeste 0 -- -- 73
2019-04-15 23:00:00 17.6 3 Oeste 32 Oeste 0 -- -- 70
2019-04-15 22:00:00 18.4 19 Oeste 39 Oeste 0 -- -- 69
2019-04-15 21:00:00 19.7 20 Oeste 34 Oeste 0 -- -- 57
2019-04-15 20:00:00 20.8 15 Oeste 30 Oeste 0 -- -- 51
2019-04-15 19:00:00 22.6 17 Oeste 30 Oeste 0 -- -- 38
2019-04-15 18:00:00 22.8 6 Sudoeste 27 Oeste 0 -- -- 47
2019-04-15 17:00:00 23.1 8 Sudoeste 17 Sudoeste 0 -- -- 55
2019-04-15 16:00:00 22.8 8 Sudoeste 17 Sur 0 -- -- 57
2019-04-15 15:00:00 23.3 10 Sudoeste 15 Sudoeste 0 -- -- 45
2019-04-15 14:00:00 22.9 10 Sudoeste 19 Sudoeste 0 -- -- 49
2019-04-15 13:00:00 21.8 10 Sudoeste 13 Sudoeste 0 -- -- 54
2019-04-15 12:00:00 22.1 2 Sur 13 Sudoeste 0 -- -- 58
2019-04-15 11:00:00 22.4 4 Sur 7 Sudoeste 0 -- -- 59
2019-04-15 10:00:00 21.4 2 Sudoeste 8 Noroeste 0 -- -- 66
2019-04-15 09:00:00 16.6 3 Noroeste 5 Noroeste 0 -- -- 71
2019-04-15 08:00:00 14.1 0 Calma 4 Oeste 0 -- -- 76
2019-04-15 07:00:00 14.3 0 Calma 4 Este 0 -- -- 77
2019-04-15 06:00:00 15 0 Calma 5 Norte 0 -- -- 75
2019-04-15 05:00:00 15.5 0 Calma 5 Sudeste 0 -- -- 77
2019-04-15 04:00:00 15.5 0 Calma 3 Nordeste 0 -- -- 73
2019-04-15 03:00:00 16.2 0 Calma 4 Noroeste 0 -- -- 72
2019-04-15 02:00:00 16.2 2 Nordeste 5 Nordeste 0 -- -- 72
2019-04-15 01:00:00 16.9 0 Calma 7 Sudoeste 0 -- -- 75
2019-04-15 00:00:00 17.6 4 Sudoeste 9 Sudoeste 0 -- -- 71
2019-04-14 23:00:00 17.6 2 Norte 6 Sudoeste 0 -- -- 71
2019-04-14 22:00:00 18.2 4 Sudoeste 9 Oeste 0 -- -- 71
2019-04-14 21:00:00 18.7 6 Oeste 9 Oeste 0 -- -- 70
2019-04-14 20:00:00 19 4 Sudoeste 13 Sudoeste 0 -- -- 64
2019-04-14 19:00:00 20.5 7 Sudoeste 12 Sur 0 -- -- 66
2019-04-14 18:00:00 20.2 7 Sudoeste 13 Sudoeste 0 -- -- 65
2019-04-14 17:00:00 21.5 6 Sur 13 Sudoeste 0 -- -- 69
2019-04-14 16:00:00 20.8 6 Sudoeste 11 Sur 0 -- -- 70
2019-04-14 15:00:00 20.3 5 Sur 12 Sur 0 -- -- 72
2019-04-14 14:00:00 21 7 Sur 11 Sur 0 -- -- 67
2019-04-14 13:00:00 21.7 6 Sur 9 Sur 0 -- -- 64
2019-04-14 12:00:00 21.9 4 Sur 11 Sur 0 -- -- 62
2019-04-14 11:00:00 20.9 6 Sur 10 Sur 0 -- -- 58
2019-04-14 10:00:00 20.5 3 Sur 5 Sudoeste 0 -- -- 54
2019-04-14 09:00:00 16.5 0 Calma 6 Oeste 0 -- -- 71
2019-04-14 08:00:00 14.8 6 Oeste 10 Oeste 0 -- -- 80
2019-04-14 07:00:00 13.6 3 Oeste 8 Sudeste 0 -- -- 75
2019-04-14 06:00:00 14.5 3 Oeste 15 Sur 0 -- -- 77
2019-04-14 05:00:00 13.3 0 Calma 6 Este 0 -- -- 77
2019-04-14 04:00:00 13.8 2 Noroeste 10 Norte 0 -- -- 78
2019-04-14 03:00:00 14.6 5 Oeste 13 Sudeste 0 -- -- 74
2019-04-14 02:00:00 13.7 3 Norte 6 Noroeste 0 -- -- 71
2019-04-14 01:00:00 14.5 0 Calma 6 Sudeste 0 -- -- 68
2019-04-14 00:00:00 14.7 4 Norte 8 Norte 0 -- -- 66
2019-04-13 23:00:00 16 5 Sudeste 13 Sudeste 0 -- -- 70
2019-04-13 22:00:00 17.2 3 Nordeste 8 Noroeste 0 -- -- 63
2019-04-13 21:00:00 18.4 8 Oeste 20 Oeste 0 -- -- 55
2019-04-13 20:00:00 19.1 6 Oeste 15 Sudoeste 0 -- -- 53
2019-04-13 19:00:00 19.3 5 Sudeste 8 Sur 0 -- -- 63
2019-04-13 18:00:00 20.3 6 Sur 12 Sudoeste 0 -- -- 58
2019-04-13 17:00:00 21.4 6 Sudoeste 19 Oeste 0 -- -- 52
2019-04-13 16:00:00 21.9 5 Sur 12 Sur 0 -- -- 56
2019-04-13 15:00:00 20.6 6 Sur 10 Sur 0 -- -- 52
2019-04-13 14:00:00 21.3 6 Sur 10 Sudoeste 0 -- -- 51
2019-04-13 13:00:00 22.4 5 Sur 13 Sudoeste 0 -- -- 61
2019-04-13 12:00:00 19.5 8 Sur 14 Sur 0 -- -- 65
2019-04-13 11:00:00 19.7 5 Sur 9 Sudoeste 0 -- -- 60
2019-04-13 10:00:00 19.2 6 Sudoeste 9 Sudoeste 0 -- -- 57
2019-04-13 09:00:00 16 0 Calma 3 Este 0 -- -- 66
2019-04-13 08:00:00 11.4 0 Calma 3 Noroeste 0 -- -- 76
2019-04-13 07:00:00 12.4 3 Sur 6 Sur 0 -- -- 76
2019-04-13 06:00:00 12.1 2 Sudoeste 6 Oeste 0 -- -- 72
2019-04-13 05:00:00 13 3 Sudeste 8 Sudeste 0 -- -- 65
2019-04-13 04:00:00 12.6 2 Sudeste 6 Este 0 -- -- 73
2019-04-13 03:00:00 12.8 2 Norte 8 Este 0 -- -- 70
2019-04-13 02:00:00 13.2 0 Calma 4 Noroeste 0 -- -- 70
2019-04-13 01:00:00 13.3 0 Calma 10 Este 0 -- -- 68
2019-04-13 00:00:00 14 3 Norte 6 Nordeste 0 -- -- 67
2019-04-12 23:00:00 14.5 4 Nordeste 10 Este 0 -- -- 65
2019-04-12 22:00:00 15.9 2 Norte 5 Sudeste 0 -- -- 70
2019-04-12 21:00:00 16.2 3 Este 10 Sudeste 0 -- -- 72
2019-04-12 20:00:00 17.9 4 Sudoeste 14 Oeste 0 -- -- 65
2019-04-12 19:00:00 19.2 5 Sur 22 Oeste 0 -- -- 63
2019-04-12 18:00:00 20.6 11 Oeste 24 Sudoeste 0 -- -- 43
2019-04-12 17:00:00 21.9 8 Sudoeste 17 Sudoeste 0 -- -- 37
2019-04-12 16:00:00 22.3 6 Sudoeste 11 Sudoeste 0 -- -- 35
2019-04-12 15:00:00 21.8 7 Sudoeste 14 Sudoeste 0 -- -- 38
2019-04-12 14:00:00 21.3 10 Sudoeste 15 Sudoeste 0 -- -- 42
2019-04-12 13:00:00 21.6 9 Sudoeste 15 Sudoeste 0 -- -- 43
2019-04-12 12:00:00 22.4 9 Sudoeste 15 Sudoeste 0 -- -- 40
2019-04-12 11:00:00 22.1 6 Sur 9 Sur 0 -- -- 40
2019-04-12 10:00:00 21.6 2 Sudoeste 8 Sudeste 0 -- -- 41
2019-04-12 09:00:00 17.1 0 Calma 6 Sudoeste 0 -- -- 58
2019-04-12 08:00:00 11.9 2 Este 8 Oeste 0 -- -- 70
2019-04-12 07:00:00 11.7 2 Norte 6 Este 0 -- -- 71
2019-04-12 06:00:00 11.7 2 Norte 6 Nordeste 0 -- -- 70
2019-04-12 05:00:00 12.6 0 Calma 5 Noroeste 0 -- -- 69
2019-04-12 04:00:00 13.1 0 Calma 4 Sudeste 0 -- -- 61
2019-04-12 03:00:00 14.3 0 Calma 9 Sudoeste 0 -- -- 67
2019-04-12 02:00:00 14.4 4 Nordeste 11 Oeste 0 -- -- 64
2019-04-12 01:00:00 15.6 6 Este 17 Sudeste 0 -- -- 70
2019-04-12 00:00:00 15.5 5 Sudoeste 10 Sudoeste 0 -- -- 67
2019-04-11 23:00:00 15.8 7 Sudeste 16 Sudeste 0 -- -- 78
2019-04-11 22:00:00 16.1 2 Sudeste 12 Nordeste 0 -- -- 71
2019-04-11 21:00:00 16.9 4 Nordeste 25 Oeste 0 -- -- 70
2019-04-11 20:00:00 17.4 15 Oeste 40 Sudoeste 0 -- -- 70
2019-04-11 19:00:00 18.6 26 Oeste 47 Oeste 0 -- -- 64
2019-04-11 18:00:00 19.1 25 Oeste 42 Oeste 0 -- -- 62
2019-04-11 17:00:00 20 17 Oeste 40 Sudoeste 0 -- -- 59
2019-04-11 16:00:00 20.1 13 Oeste 29 Oeste 0 -- -- 55
2019-04-11 15:00:00 20.3 17 Oeste 31 Oeste 0 -- -- 53
2019-04-11 14:00:00 20.7 13 Sudoeste 35 Oeste 0 -- -- 51
2019-04-11 13:00:00 19.1 11 Sudoeste 27 Sudoeste 0 -- -- 62
2019-04-11 12:00:00 21 9 Oeste 23 Oeste 0 -- -- 44
2019-04-11 11:00:00 21 12 Norte 30 Norte 0 -- -- 34
2019-04-11 10:00:00 19.6 7 Noroeste 22 Norte 0 -- -- 40
2019-04-11 09:00:00 16.5 7 Nordeste 15 Nordeste 0 -- -- 48
2019-04-11 08:00:00 12.6 3 Noroeste 8 Norte 0 -- -- 62
2019-04-11 07:00:00 12.7 3 Noroeste 10 Este 0 -- -- 62
2019-04-11 06:00:00 14 0 Calma 19 Sudeste 0 -- -- 57
2019-04-11 05:00:00 15.3 8 Sudeste 22 Noroeste 0 -- -- 60
2019-04-11 04:00:00 15.7 11 Noroeste 30 Noroeste 0 -- -- 47
2019-04-11 03:00:00 15.2 13 Noroeste 30 Noroeste 0 -- -- 49
2019-04-11 02:00:00 17 16 Noroeste 25 Noroeste 0 -- -- 44
2019-04-11 01:00:00 15.8 8 Noroeste 14 Oeste 0 -- -- 53
2019-04-11 00:00:00 16.2 6 Noroeste 11 Oeste 0 -- -- 49
2019-04-10 23:00:00 16.3 5 Noroeste 15 Noroeste 0 -- -- 49
2019-04-10 22:00:00 17.9 14 Noroeste 29 Noroeste 0 -- -- 42
2019-04-10 21:00:00 18.1 18 Noroeste 38 Noroeste 0 -- -- 41
2019-04-10 20:00:00 19.1 16 Noroeste 41 Noroeste 0 -- -- 37
2019-04-10 19:00:00 19.9 28 Noroeste 52 Oeste 0 -- -- 31
2019-04-10 18:00:00 21 24 Noroeste 56 Noroeste 0 -- -- 29
2019-04-10 17:00:00 21.4 21 Noroeste 47 Noroeste 0 -- -- 27
2019-04-10 16:00:00 21.9 18 Noroeste 42 Noroeste 0 -- -- 28
2019-04-10 15:00:00 22.1 22 Noroeste 43 Oeste 0 -- -- 29
2019-04-10 14:00:00 21.2 23 Oeste 43 Oeste 0 -- -- 38
2019-04-10 13:00:00 21.5 26 Noroeste 51 Noroeste 0 -- -- 29
2019-04-10 12:00:00 20.4 29 Noroeste 58 Oeste 0 -- -- 31
2019-04-10 11:00:00 19.5 29 Noroeste 54 Oeste 0 -- -- 36
2019-04-10 10:00:00 18.5 21 Noroeste 43 Oeste 0 -- -- 39
2019-04-10 09:00:00 16.1 26 Noroeste 41 Oeste 0 -- -- 44
2019-04-10 08:00:00 14.7 24 Oeste 44 Oeste 0 -- -- 49
2019-04-10 07:00:00 14.8 21 Oeste 40 Noroeste 0 -- -- 51
2019-04-10 06:00:00 15.3 19 Noroeste 32 Noroeste 0 -- -- 48
2019-04-10 05:00:00 15.3 15 Noroeste 33 Noroeste 0 -- -- 53
2019-04-10 04:00:00 15.1 12 Oeste 30 Oeste 0 -- -- 55
2019-04-10 03:00:00 15.3 12 Noroeste 22 Oeste 0 -- -- 54
2019-04-10 02:00:00 15.7 14 Noroeste 22 Noroeste 0 -- -- 54
2019-04-10 01:00:00 16.2 15 Noroeste 32 Noroeste 0 -- -- 51
2019-04-10 00:00:00 17 10 Noroeste 24 Noroeste 0 -- -- 50
2019-04-09 23:00:00 17 7 Noroeste 15 Noroeste 0 -- -- 49
2019-04-09 22:00:00 16.8 10 Oeste 20 Oeste 0 -- -- 55
2019-04-09 21:00:00 16.9 15 Oeste 39 Oeste 0 -- -- 66
2019-04-09 20:00:00 17.2 22 Oeste 40 Oeste 0 -- -- 67
2019-04-09 19:00:00 17.8 24 Oeste 47 Oeste 0 -- -- 65
2019-04-09 18:00:00 18.6 24 Oeste 49 Oeste 0 -- -- 65
2019-04-09 17:00:00 19.5 24 Oeste 46 Oeste 0 -- -- 62
2019-04-09 16:00:00 18.9 31 Oeste 52 Oeste 0 -- -- 61
2019-04-09 15:00:00 18.5 27 Oeste 52 Oeste 0 -- -- 61
2019-04-09 14:00:00 19.2 21 Oeste 49 Oeste 0 -- -- 51
2019-04-09 13:00:00 19.8 22 Oeste 46 Oeste 0 -- -- 50
2019-04-09 12:00:00 18.1 20 Oeste 45 Oeste 0 -- -- 53
2019-04-09 11:00:00 20.2 18 Noroeste 37 Noroeste 0 -- -- 38
2019-04-09 10:00:00 18.1 23 Noroeste 43 Oeste 0 -- -- 39
2019-04-09 09:00:00 16.6 15 Noroeste 44 Oeste 0 -- -- 42
2019-04-09 08:00:00 14.8 22 Noroeste 46 Noroeste 0 -- -- 48
2019-04-09 07:00:00 14.7 21 Noroeste 35 Noroeste 0 -- -- 46
2019-04-09 06:00:00 15.3 18 Noroeste 32 Oeste 0 -- -- 46
2019-04-09 05:00:00 15.4 17 Noroeste 38 Noroeste 0 -- -- 51
2019-04-09 04:00:00 14.4 17 Oeste 33 Oeste 0 -- -- 61
2019-04-09 03:00:00 14.3 12 Oeste 23 Oeste 0 -- -- 80
2019-04-09 02:00:00 15.2 14 Oeste 26 Oeste 0 -- -- 81
2019-04-09 01:00:00 15.4 15 Oeste 43 Oeste 0 -- -- 84
2019-04-09 00:00:00 15.6 18 Oeste 39 Oeste 0 -- -- 85
2019-04-08 23:00:00 15.9 21 Oeste 35 Sudoeste 0 -- -- 81
2019-04-08 22:00:00 16.3 19 Oeste 44 Oeste 0 -- -- 76
2019-04-08 21:00:00 16.7 22 Oeste 43 Oeste 0 -- -- 76
2019-04-08 20:00:00 17.5 23 Oeste 41 Oeste 0 -- -- 69
2019-04-08 19:00:00 18.8 24 Oeste 45 Sudoeste 0 -- -- 67
2019-04-08 18:00:00 19.5 23 Oeste 44 Oeste 0 -- -- 63
2019-04-08 17:00:00 19.1 26 Oeste 44 Oeste 0 -- -- 69
2019-04-08 16:00:00 18.6 19 Oeste 40 Oeste 0 -- -- 74
2019-04-08 15:00:00 18.4 24 Oeste 44 Oeste 0 -- -- 73
2019-04-08 14:00:00 19.9 27 Oeste 45 Oeste 0 -- -- 66
2019-04-08 13:00:00 19.5 23 Oeste 43 Oeste 0 -- -- 69
2019-04-08 12:00:00 19 24 Oeste 39 Oeste 0 -- -- 71
2019-04-08 11:00:00 18.1 24 Oeste 39 Oeste 0 -- -- 73
2019-04-08 10:00:00 17.5 18 Oeste 34 Oeste 0 -- -- 72
2019-04-08 09:00:00 15.8 20 Oeste 37 Sudoeste 0 -- -- 79
2019-04-08 08:00:00 14 9 Noroeste 17 Oeste 0 -- -- 82
2019-04-08 07:00:00 14 8 Noroeste 19 Oeste 0 -- -- 83
2019-04-08 06:00:00 14.8 15 Oeste 30 Oeste 0 -- -- 83
2019-04-08 05:00:00 14.2 13 Oeste 22 Oeste 0 -- -- 84
2019-04-08 04:00:00 13.1 3 Noroeste 10 Oeste 0 -- -- 84
2019-04-08 03:00:00 13.5 6 Noroeste 12 Oeste 0 -- -- 82
2019-04-08 02:00:00 13.8 3 Noroeste 8 Noroeste 0 -- -- 82
2019-04-08 01:00:00 14.3 2 Norte 12 Oeste 0 -- -- 81
2019-04-08 00:00:00 14.9 5 Oeste 23 Oeste 0 -- -- 82
2019-04-07 23:00:00 15.2 10 Oeste 24 Oeste 0 -- -- 83
2019-04-07 22:00:00 15.6 10 Oeste 22 Oeste 0 -- -- 77
2019-04-07 21:00:00 15.9 12 Oeste 24 Oeste 0 -- -- 73
2019-04-07 20:00:00 16.1 15 Oeste 31 Oeste 0 -- -- 69
2019-04-07 19:00:00 16.5 21 Oeste 43 Oeste 0 -- -- 67
2019-04-07 18:00:00 17.5 24 Oeste 41 Oeste 0 -- -- 62
2019-04-07 17:00:00 17.3 30 Oeste 48 Oeste 0 -- -- 64
2019-04-07 16:00:00 20 20 Oeste 37 Oeste 0 -- -- 53
2019-04-07 15:00:00 19.3 21 Noroeste 51 Noroeste 0 -- -- 41
2019-04-07 14:00:00 20 28 Noroeste 48 Noroeste 0 -- -- 39
2019-04-07 13:00:00 18.1 23 Noroeste 46 Noroeste 0 -- -- 43
2019-04-07 12:00:00 18.2 23 Noroeste 48 Noroeste 0 -- -- 43
2019-04-07 11:00:00 17.6 22 Noroeste 39 Noroeste 0 -- -- 46
2019-04-07 10:00:00 17 21 Noroeste 36 Noroeste 0 -- -- 48
2019-04-07 09:00:00 15.5 12 Noroeste 21 Oeste 0 -- -- 54
2019-04-07 08:00:00 12.3 3 Oeste 29 Oeste 0 -- -- 61
2019-04-07 07:00:00 12.8 13 Noroeste 24 Oeste 0 -- -- 67
2019-04-07 06:00:00 11.9 6 Noroeste 26 Noroeste 0 -- -- 64
2019-04-07 05:00:00 11.3 13 Noroeste 24 Noroeste 0 -- -- 70
2019-04-07 04:00:00 11.7 13 Noroeste 20 Oeste 0 -- -- 75
2019-04-07 03:00:00 11.6 9 Noroeste 16 Oeste 0.2 -- -- 75
2019-04-07 02:00:00 11.7 6 Noroeste 14 Noroeste 0 -- -- 73
2019-04-07 01:00:00 10.9 3 Noroeste 27 Norte 0.6 -- -- 75
2019-04-07 00:00:00 11.9 15 Norte 31 Norte 0 -- -- 69
2019-04-06 23:00:00 12.3 5 Noroeste 22 Oeste 0.2 -- -- 74
2019-04-06 22:00:00 12.4 9 Noroeste 22 Noroeste 0.6 -- -- 75
2019-04-06 21:00:00 13.4 8 Norte 19 Oeste 0 -- -- 70
2019-04-06 20:00:00 13.7 15 Oeste 28 Oeste 0.2 -- -- 73
2019-04-06 19:00:00 14.1 16 Oeste 36 Oeste 0 -- -- 73
2019-04-06 18:00:00 14.6 19 Oeste 33 Oeste 0 -- -- 68
2019-04-06 17:00:00 14.8 20 Oeste 35 Oeste 5.4 -- -- 81
2019-04-06 16:00:00 14.7 18 Oeste 45 Oeste 0.4 -- -- 71
2019-04-06 15:00:00 14.9 27 Oeste 48 Sudoeste 0 -- -- 70
2019-04-06 14:00:00 17 19 Oeste 43 Oeste 0 -- -- 56
2019-04-06 13:00:00 17.4 22 Oeste 47 Sudoeste 0 -- -- 53
2019-04-06 12:00:00 17.4 21 Oeste 41 Oeste 0 -- -- 50
2019-04-06 11:00:00 16.8 23 Oeste 39 Oeste 0 -- -- 48
2019-04-06 10:00:00 16.5 10 Noroeste 21 Oeste 0 -- -- 49
2019-04-06 09:00:00 13.7 13 Oeste 23 Oeste 0 -- -- 55
2019-04-06 08:00:00 11.6 12 Noroeste 22 Noroeste 0 -- -- 60
2019-04-06 07:00:00 10.9 12 Oeste 18 Oeste 0 -- -- 62
2019-04-06 06:00:00 11.1 11 Oeste 18 Noroeste 0 -- -- 61
2019-04-06 05:00:00 10.9 8 Noroeste 22 Oeste 0 -- -- 65
2019-04-06 04:00:00 11.5 13 Oeste 22 Oeste 0 -- -- 61
2019-04-06 03:00:00 11.7 9 Oeste 20 Oeste 0 -- -- 59
2019-04-06 02:00:00 11.6 8 Noroeste 16 Oeste 0 -- -- 61
2019-04-06 01:00:00 11.7 10 Oeste 17 Noroeste 0 -- -- 59
2019-04-06 00:00:00 12 9 Oeste 19 Oeste 0 -- -- 56
2019-04-05 23:00:00 12 5 Noroeste 13 Oeste 0 -- -- 54
2019-04-05 22:00:00 12.8 6 Noroeste 23 Oeste 0 -- -- 48
2019-04-05 21:00:00 14 19 Noroeste 34 Oeste 0 -- -- 40
2019-04-05 20:00:00 15.2 18 Noroeste 42 Oeste 0 -- -- 44
2019-04-05 19:00:00 14.9 26 Oeste 54 Oeste 0 -- -- 64
2019-04-05 18:00:00 16 14 Oeste 32 Sudoeste 0 -- -- 68
2019-04-05 17:00:00 14.7 12 Oeste 28 Oeste 0 -- -- 73
2019-04-05 16:00:00 14.3 12 Oeste 33 Sudoeste 0.8 -- -- 81
2019-04-05 15:00:00 12.8 19 Oeste 37 Oeste 2.4 -- -- 88
2019-04-05 14:00:00 12.7 14 Oeste 36 Sudoeste 2.8 -- -- 87
2019-04-05 13:00:00 13.7 18 Oeste 35 Oeste 0.2 -- -- 80
2019-04-05 12:00:00 13.3 18 Oeste 47 Oeste 0.8 -- -- 87
2019-04-05 11:00:00 12.4 3 Sudeste 21 Sudoeste 1.6 -- -- 88
2019-04-05 10:00:00 12 4 Nordeste 21 Noroeste 2 -- -- 85
2019-04-05 09:00:00 13.1 10 Noroeste 27 Oeste 2.4 -- -- 79
2019-04-05 08:00:00 13.5 5 Noroeste 12 Noroeste 0 -- -- 56
2019-04-05 07:00:00 13.3 6 Noroeste 15 Oeste 0 -- -- 64
2019-04-05 06:00:00 13.3 7 Oeste 12 Oeste 0 -- -- 70
2019-04-05 05:00:00 12.9 6 Oeste 10 Noroeste 0 -- -- 72
2019-04-05 04:00:00 12.9 4 Noroeste 10 Oeste 0 -- -- 71
2019-04-05 03:00:00 14.1 7 Noroeste 36 Oeste 0 -- -- 65
2019-04-05 02:00:00 14.3 23 Oeste 40 Oeste 0 -- -- 62
2019-04-05 01:00:00 14.5 17 Oeste 38 Sudoeste 0 -- -- 65
2019-04-05 00:00:00 14.7 19 Oeste 40 Oeste 0 -- -- 63
2019-04-04 23:00:00 15.2 19 Oeste 39 Oeste 0 -- -- 64
2019-04-04 22:00:00 15.7 17 Oeste 32 Oeste 0 -- -- 70
2019-04-04 21:00:00 16 17 Oeste 34 Oeste 0 -- -- 63
2019-04-04 20:00:00 17.3 20 Oeste 36 Oeste 0 -- -- 59
2019-04-04 19:00:00 19.2 8 Oeste 22 Sudoeste 0 -- -- 57
2019-04-04 18:00:00 18.4 6 Sudeste 12 Sur 0 -- -- 58
2019-04-04 17:00:00 19 8 Sur 14 Sudoeste 0 -- -- 58
2019-04-04 16:00:00 19 7 Sur 31 Sudeste 0 -- -- 49
2019-04-04 15:00:00 16.2 22 Sudeste 28 Sudeste 0 -- -- 79
2019-04-04 14:00:00 16.4 23 Sudeste 33 Sudeste 0 -- -- 77
2019-04-04 13:00:00 16.5 27 Sudeste 35 Sudeste 0 -- -- 75
2019-04-04 12:00:00 17 25 Sudeste 35 Sudeste 0 -- -- 72
2019-04-04 11:00:00 16.7 19 Sudeste 34 Sudeste 0 -- -- 73
2019-04-04 10:00:00 17.7 13 Este 23 Sudeste 0 -- -- 65
2019-04-04 09:00:00 17.3 8 Norte 24 Norte 0 -- -- 37
2019-04-04 08:00:00 15.2 7 Sudoeste 17 Sudoeste 0 -- -- 43
2019-04-04 07:00:00 15.4 3 Norte 20 Norte 0 -- -- 45
2019-04-04 06:00:00 15.5 0 Calma 13 Oeste 0 -- -- 48
2019-04-04 05:00:00 16.2 7 Noroeste 15 Norte 0 -- -- 46
2019-04-04 04:00:00 16 2 Noroeste 9 Oeste 0 -- -- 45
2019-04-04 03:00:00 17.6 4 Oeste 21 Oeste 0 -- -- 37
2019-04-04 02:00:00 18.2 10 Noroeste 22 Oeste 0 -- -- 38
2019-04-04 01:00:00 18.1 6 Noroeste 24 Oeste 0 -- -- 40
2019-04-04 00:00:00 19.4 16 Noroeste 28 Oeste 0 -- -- 36
2019-04-03 23:00:00 19.5 14 Noroeste 26 Noroeste 0 -- -- 38
2019-04-03 22:00:00 17.2 9 Oeste 18 Oeste 0 -- -- 75
2019-04-03 21:00:00 18.2 2 Sur 20 Oeste 0 -- -- 62
2019-04-03 20:00:00 18.7 7 Oeste 22 Sudoeste 0 -- -- 59
2019-04-03 19:00:00 19.1 9 Sudoeste 21 Oeste 0 -- -- 70
2019-04-03 18:00:00 19.8 8 Sur 19 Sudoeste 0 -- -- 67
2019-04-03 17:00:00 20.3 7 Sudoeste 19 Sudoeste 0 -- -- 66
2019-04-03 16:00:00 20.1 8 Sudoeste 22 Sudoeste 0 -- -- 63
2019-04-03 15:00:00 20.1 9 Sudoeste 16 Sudoeste 0 -- -- 68
2019-04-03 14:00:00 19.7 8 Sur 12 Sur 0 -- -- 67
2019-04-03 13:00:00 19.1 7 Sur 13 Sur 0 -- -- 68
2019-04-03 12:00:00 17.7 9 Sudeste 14 Sudeste 0 -- -- 78
2019-04-03 11:00:00 19.6 9 Sudeste 13 Sudeste 0 -- -- 66
2019-04-03 10:00:00 18.7 5 Sur 8 Sur 0 -- -- 66
2019-04-03 09:00:00 13.8 2 Norte 4 Norte 0 -- -- 82
2019-04-03 08:00:00 11.7 0 Calma 4 Este 0 -- -- 88
2019-04-03 07:00:00 12 2 Noroeste 5 Este 0 -- -- 88
2019-04-03 06:00:00 12.6 2 Sudeste 5 Norte 0 -- -- 86
2019-04-03 05:00:00 13 0 Calma 3 Noroeste 0 -- -- 84
2019-04-03 04:00:00 13.6 3 Norte 8 Nordeste 0 -- -- 82
2019-04-03 03:00:00 14.1 4 Nordeste 5 Nordeste 0 -- -- 82
2019-04-03 02:00:00 14.7 0 Calma 5 Norte 0 -- -- 79
2019-04-03 01:00:00 15.4 2 Oeste 9 Norte 0 -- -- 78
2019-04-03 00:00:00 15.6 4 Noroeste 13 Oeste 0 -- -- 76
2019-04-02 23:00:00 16.4 0 Calma 12 Oeste 0 -- -- 75
2019-04-02 22:00:00 16.8 0 Calma 7 Sudoeste 0 -- -- 72
2019-04-02 21:00:00 17 0 Calma 24 Sudoeste 0 -- -- 72
2019-04-02 20:00:00 17.6 12 Oeste 27 Sudoeste 0 -- -- 70
2019-04-02 19:00:00 18.7 11 Oeste 24 Sudoeste 0 -- -- 62
2019-04-02 18:00:00 20.5 10 Oeste 20 Oeste 0 -- -- 55
2019-04-02 17:00:00 20.9 6 Sudoeste 13 Sudoeste 0 -- -- 63
2019-04-02 16:00:00 20.3 6 Sudoeste 14 Sudoeste 0 -- -- 62
2019-04-02 15:00:00 20.1 6 Sur 12 Sudoeste 0 -- -- 64
2019-04-02 14:00:00 20.3 5 Sudoeste 13 Sur 0 -- -- 62
2019-04-02 13:00:00 19.8 8 Sur 12 Sur 0 -- -- 62
2019-04-02 12:00:00 21 8 Sur 10 Sur 0 -- -- 56
2019-04-02 11:00:00 20 6 Sur 8 Sur 0 -- -- 58
2019-04-02 10:00:00 18.5 4 Sudoeste 5 Sudoeste 0 -- -- 61
2019-04-02 09:00:00 14.2 0 Calma 5 Este 0 -- -- 76
2019-04-02 08:00:00 11.9 0 Calma 8 Norte 0 -- -- 85
2019-04-02 07:00:00 12 4 Nordeste 6 Nordeste 0 -- -- 83
2019-04-02 06:00:00 11.7 4 Norte 6 Norte 0 -- -- 84
2019-04-02 05:00:00 12.2 2 Norte 6 Norte 0 -- -- 83
2019-04-02 04:00:00 12.6 2 Noroeste 4 Oeste 0 -- -- 84
2019-04-02 03:00:00 12.7 2 Norte 5 Norte 0 -- -- 83
2019-04-02 02:00:00 13.2 3 Norte 6 Oeste 0 -- -- 83
2019-04-02 01:00:00 13.3 0 Calma 4 Norte 0 -- -- 83
2019-04-02 00:00:00 14.1 2 Norte 4 Nordeste 0 -- -- 81
2019-04-01 23:00:00 15.1 2 Sudeste 5 Nordeste 0 -- -- 80
2019-04-01 22:00:00 16 4 Norte 21 Oeste 0 -- -- 75
2019-04-01 21:00:00 16.6 9 Oeste 28 Oeste 0 -- -- 73
2019-04-01 20:00:00 17.4 12 Oeste 26 Oeste 0 -- -- 69
2019-04-01 19:00:00 19.2 9 Sudoeste 28 Oeste 0 -- -- 64
2019-04-01 18:00:00 19.7 17 Oeste 33 Oeste 0 -- -- 65
2019-04-01 17:00:00 19.9 9 Oeste 27 Sudoeste 0 -- -- 65
2019-04-01 16:00:00 20.5 8 Sur 17 Sudoeste 0 -- -- 64
2019-04-01 15:00:00 20.9 6 Sudoeste 21 Sudoeste 0 -- -- 63
2019-04-01 14:00:00 20.7 9 Sudoeste 19 Sudoeste 0 -- -- 66
2019-04-01 13:00:00 20.4 6 Sudoeste 12 Sudoeste 0 -- -- 68
2019-04-01 12:00:00 20.8 5 Sur 13 Sudoeste 0 -- -- 65
2019-04-01 11:00:00 20.7 7 Sudoeste 14 Sudoeste 0 -- -- 66
2019-04-01 10:00:00 18.4 4 Sur 7 Sur 0 -- -- 72
2019-04-01 09:00:00 15.3 0 Calma 4 Norte 0 -- -- 88
2019-04-01 08:00:00 12.8 0 Calma 8 Norte 0 -- -- 91
2019-04-01 07:00:00 14.2 2 Norte 7 Oeste 0 -- -- 90
2019-04-01 06:00:00 15 5 Oeste 15 Sudoeste 0 -- -- 90
2019-04-01 05:00:00 15.2 5 Oeste 13 Sudoeste 0 -- -- 89
2019-04-01 04:00:00 15.1 6 Oeste 16 Sudoeste 0 -- -- 88
2019-04-01 03:00:00 15.1 8 Sudoeste 18 Sudoeste 0 -- -- 89
2019-04-01 02:00:00 15.2 5 Sudoeste 14 Oeste 0 -- -- 89
2019-04-01 01:00:00 15.2 5 Oeste 19 Oeste 0 -- -- 88
2019-04-01 00:00:00 15.2 6 Oeste 15 Sudoeste 0 -- -- 88
2019-03-31 23:00:00 15.2 7 Oeste 19 Oeste 0 -- -- 88
2019-03-31 22:00:00 15.1 10 Oeste 19 Oeste 0 -- -- 87
2019-03-31 21:00:00 15 8 Oeste 18 Oeste 0 -- -- 88
2019-03-31 20:00:00 15 7 Sudoeste 19 Sudoeste 0.2 -- -- 89
2019-03-31 19:00:00 15.4 7 Sudoeste 13 Sudoeste 0 -- -- 87
2019-03-31 18:00:00 16.4 5 Sur 13 Sudoeste 0 -- -- 83
2019-03-31 17:00:00 16.2 4 Sudoeste 15 Oeste 0.2 -- -- 87
2019-03-31 16:00:00 15.5 6 Oeste 16 Sudoeste 0.4 -- -- 90
2019-03-31 15:00:00 15.9 6 Oeste 15 Oeste 0 -- -- 90
2019-03-31 14:00:00 15.2 7 Oeste 14 Oeste 1.2 -- -- 93
2019-03-31 13:00:00 14.6 6 Oeste 17 Sudoeste 2.2 -- -- 93
2019-03-31 12:00:00 14.6 9 Oeste 15 Sudoeste 0.8 -- -- 93
2019-03-31 11:00:00 14.4 5 Oeste 10 Oeste 0.4 -- -- 93
2019-03-31 10:00:00 14.2 6 Oeste 12 Oeste 0.2 -- -- 93
2019-03-31 09:00:00 14.1 3 Oeste 5 Oeste 0.2 -- -- 93
2019-03-31 08:00:00 14.1 3 Oeste 5 Oeste 0 -- -- 92
2019-03-31 07:00:00 13.9 0 Calma 5 Nordeste 0 -- -- 92
2019-03-31 06:00:00 14 2 Norte 4 Sudoeste 0 -- -- 92
2019-03-31 05:00:00 13.9 3 Sudoeste 4 Sudoeste 0.6 -- -- 91
2019-03-31 03:00:00 14 6 Este 17 Este 1 -- -- 89
2019-03-31 01:00:00 14.3 16 Sudeste 23 Sudeste 0.8 -- -- 87
2019-03-31 00:00:00 14.9 16 Este 24 Este 0.2 -- -- 84
2019-03-30 23:00:00 15.2 3 Nordeste 22 Sudeste 0 -- -- 82
2019-03-30 22:00:00 15.7 19 Sudeste 24 Sudeste 0 -- -- 79
2019-03-30 21:00:00 16 4 Norte 18 Noroeste 0 -- -- 74
2019-03-30 20:00:00 16.1 5 Sudoeste 21 Sudeste 0 -- -- 74
2019-03-30 19:00:00 16.5 10 Sudeste 24 Oeste 0 -- -- 72
2019-03-30 18:00:00 17.5 8 Oeste 26 Sudeste 0 -- -- 60
2019-03-30 17:00:00 16.7 22 Sudeste 45 Sudeste 0 -- -- 66
2019-03-30 16:00:00 16.3 40 Sudeste 53 Sudeste 0 -- -- 69
2019-03-30 15:00:00 16.6 37 Sudeste 54 Sudeste 0 -- -- 66
2019-03-30 14:00:00 16.6 36 Este 52 Este 0 -- -- 64
2019-03-30 13:00:00 16.5 30 Sudeste 46 Sudeste 0 -- -- 67
2019-03-30 12:00:00 16.7 28 Sudeste 42 Este 0 -- -- 63
2019-03-30 11:00:00 17.4 19 Sudeste 28 Sudeste 0 -- -- 61
2019-03-30 10:00:00 16.6 14 Este 24 Este 0 -- -- 63
2019-03-30 09:00:00 14.7 0 Calma 5 Sudeste 0 -- -- 71
2019-03-30 08:00:00 12.3 2 Este 4 Este 0 -- -- 82
2019-03-30 07:00:00 11.6 2 Este 4 Noroeste 0 -- -- 83
2019-03-30 06:00:00 11.9 3 Norte 8 Este 0 -- -- 82
2019-03-30 05:00:00 12.5 2 Sudoeste 4 Este 0 -- -- 80
2019-03-30 04:00:00 12.4 2 Nordeste 8 Oeste 0 -- -- 79
2019-03-30 03:00:00 12 4 Norte 8 Este 0 -- -- 80
2019-03-30 02:00:00 11.9 0 Calma 8 Nordeste 0 -- -- 79
2019-03-30 01:00:00 12.3 0 Calma 5 Norte 0 -- -- 78
2019-03-30 00:00:00 13.3 0 Calma 9 Este 0 -- -- 76
2019-03-29 23:00:00 14.4 5 Nordeste 13 Sudeste 0 -- -- 73
2019-03-29 22:00:00 14.7 5 Nordeste 28 Este 0 -- -- 73
2019-03-29 21:00:00 15.4 19 Este 28 Sudeste 0 -- -- 71
2019-03-29 20:00:00 15.5 21 Sudeste 29 Este 0 -- -- 70
2019-03-29 19:00:00 15.9 23 Sudeste 36 Sudeste 0 -- -- 68
2019-03-29 18:00:00 16.3 26 Sudeste 40 Este 0 -- -- 68
2019-03-29 17:00:00 16.6 25 Sudeste 42 Sudeste 0 -- -- 65
2019-03-29 16:00:00 16.7 34 Sudeste 47 Este 0 -- -- 65
2019-03-29 15:00:00 17.2 28 Sudeste 44 Sudeste 0 -- -- 67
2019-03-29 14:00:00 16.9 30 Sudeste 47 Sudeste 0 -- -- 60
2019-03-29 13:00:00 17.5 24 Este 42 Sudeste 0 -- -- 58
2019-03-29 12:00:00 17.8 27 Sudeste 38 Sudeste 0 -- -- 56
2019-03-29 11:00:00 17.9 18 Sudeste 26 Sudeste 0 -- -- 57
2019-03-29 10:00:00 21.4 3 Sudeste 6 Nordeste 0 -- -- 32
2019-03-29 09:00:00 17.6 3 Norte 8 Nordeste 0 -- -- 35
2019-03-29 08:00:00 12.2 2 Norte 8 Nordeste 0 -- -- 47
2019-03-29 07:00:00 9.8 3 Norte 8 Noroeste 0 -- -- 51
2019-03-29 06:00:00 9.6 4 Noroeste 5 Norte 0 -- -- 55
2019-03-29 05:00:00 10.2 2 Norte 8 Este 0 -- -- 47
2019-03-29 04:00:00 10.9 4 Oeste 10 Este 0 -- -- 45
2019-03-29 03:00:00 12.3 4 Este 23 Sudeste 0 -- -- 50
2019-03-29 02:00:00 10.3 0 Calma 13 Nordeste 0 -- -- 66
2019-03-29 01:00:00 10.9 2 Oeste 5 Noroeste 0 -- -- 71
2019-03-29 00:00:00 11.5 3 Nordeste 6 Nordeste 0 -- -- 71
2019-03-28 23:00:00 13 0 Calma 11 Este 0 -- -- 66
2019-03-28 22:00:00 14 10 Este 22 Este 0 -- -- 66
2019-03-28 21:00:00 14.7 11 Este 37 Este 0 -- -- 63
2019-03-28 20:00:00 15.2 27 Este 46 Este 0 -- -- 67
2019-03-28 19:00:00 15.4 27 Este 53 Este 0 -- -- 65
2019-03-28 18:00:00 15.8 36 Sudeste 54 Sudeste 0 -- -- 60
2019-03-28 17:00:00 16 38 Este 53 Sudeste 0 -- -- 59
2019-03-28 16:00:00 16.3 34 Este 48 Este 0 -- -- 56
2019-03-28 15:00:00 16.5 26 Este 49 Sudeste 0 -- -- 54
2019-03-28 14:00:00 16.6 36 Sudeste 54 Sudeste 0 -- -- 57
2019-03-28 13:00:00 16.7 35 Sudeste 53 Sudeste 0 -- -- 46
2019-03-28 12:00:00 16.9 35 Sudeste 50 Sudeste 0 -- -- 49
2019-03-28 11:00:00 17.6 29 Sudeste 40 Sudeste 0 -- -- 43
2019-03-28 10:00:00 17.2 21 Sudeste 35 Sudeste 0 -- -- 31
2019-03-28 09:00:00 18 4 Este 10 Norte 0 -- -- 39
2019-03-28 08:00:00 12.6 6 Norte 15 Norte 0 -- -- 58
2019-03-28 07:00:00 10.3 4 Norte 13 Norte 0 -- -- 65
2019-03-28 06:00:00 10.2 2 Norte 11 Nordeste 0 -- -- 70
2019-03-28 05:00:00 10.6 5 Norte 15 Este 0 -- -- 70
2019-03-28 04:00:00 10.9 4 Nordeste 8 Norte 0 -- -- 72
2019-03-28 03:00:00 11.1 3 Norte 10 Nordeste 0 -- -- 72
2019-03-28 02:00:00 11.5 2 Este 11 Norte 0 -- -- 72
2019-03-28 01:00:00 12.3 2 Nordeste 8 Nordeste 0 -- -- 69
2019-03-28 00:00:00 13.3 5 Nordeste 30 Este 0 -- -- 67
2019-03-27 23:00:00 14.5 22 Este 37 Este 0 -- -- 69
2019-03-27 22:00:00 14.9 26 Este 42 Este 0 -- -- 67
2019-03-27 21:00:00 15.4 28 Este 45 Este 0 -- -- 65
2019-03-27 20:00:00 15.8 27 Este 43 Este 0 -- -- 63
2019-03-27 19:00:00 15.9 23 Este 51 Este 0 -- -- 65
2019-03-27 18:00:00 16.3 31 Este 53 Este 0 -- -- 61
2019-03-27 17:00:00 16.8 35 Este 54 Este 0 -- -- 57
2019-03-27 16:00:00 17.3 29 Este 51 Sudeste 0 -- -- 52
2019-03-27 15:00:00 17.4 31 Este 54 Este 0 -- -- 51
2019-03-27 14:00:00 17.5 30 Este 53 Sudeste 0 -- -- 48
2019-03-27 13:00:00 17.3 31 Este 51 Este 0 -- -- 51
2019-03-27 12:00:00 17.8 35 Este 48 Este 0 -- -- 38
2019-03-27 11:00:00 19.5 14 Este 32 Sudeste 0 -- -- 33
2019-03-27 10:00:00 21.7 3 Sudeste 10 Noroeste 0 -- -- 29
2019-03-27 09:00:00 17.3 6 Nordeste 17 Este 0 -- -- 37
2019-03-27 08:00:00 13.6 4 Este 22 Este 0 -- -- 49
2019-03-27 07:00:00 14.2 16 Este 30 Este 0 -- -- 48
2019-03-27 06:00:00 13.8 6 Sur 16 Sudeste 0 -- -- 46
2019-03-27 05:00:00 12.9 4 Norte 15 Este 0 -- -- 58
2019-03-27 04:00:00 12.8 6 Noroeste 10 Oeste 0 -- -- 60
2019-03-27 03:00:00 12.9 3 Norte 17 Este 0 -- -- 59
2019-03-27 02:00:00 14.8 11 Este 30 Este 0 -- -- 51
2019-03-27 01:00:00 15.3 24 Este 41 Este 0 -- -- 54
2019-03-27 00:00:00 15.7 7 Sudeste 35 Este 0 -- -- 53